sensor_id;sensor_type;location;lat;lon;timestamp;temperature;humidity
63017;DHT22;50274;45.640;11.756;2023-12-22T00:01:14;2.50;76.50
63017;DHT22;50274;45.640;11.756;2023-12-22T00:03:43;2.50;76.50
63017;DHT22;50274;45.640;11.756;2023-12-22T00:06:11;2.50;76.60
63017;DHT22;50274;45.640;11.756;2023-12-22T00:08:38;2.50;76.50
63017;DHT22;50274;45.640;11.756;2023-12-22T00:11:04;2.50;76.50
63017;DHT22;50274;45.640;11.756;2023-12-22T00:13:30;2.40;76.60
63017;DHT22;50274;45.640;11.756;2023-12-22T00:15:56;2.40;76.60
63017;DHT22;50274;45.640;11.756;2023-12-22T00:18:21;2.50;76.70
63017;DHT22;50274;45.640;11.756;2023-12-22T00:20:47;2.50;76.70
63017;DHT22;50274;45.640;11.756;2023-12-22T00:23:13;2.50;76.80
63017;DHT22;50274;45.640;11.756;2023-12-22T00:25:39;2.50;76.80
63017;DHT22;50274;45.640;11.756;2023-12-22T00:28:04;2.60;76.80
63017;DHT22;50274;45.640;11.756;2023-12-22T00:30:30;2.50;76.70
63017;DHT22;50274;45.640;11.756;2023-12-22T00:32:56;2.50;76.80
63017;DHT22;50274;45.640;11.756;2023-12-22T00:35:22;2.50;76.80
63017;DHT22;50274;45.640;11.756;2023-12-22T00:37:48;2.50;76.90
63017;DHT22;50274;45.640;11.756;2023-12-22T00:40:13;2.50;76.90
63017;DHT22;50274;45.640;11.756;2023-12-22T00:42:39;2.50;76.90
63017;DHT22;50274;45.640;11.756;2023-12-22T00:45:05;2.50;76.90
63017;DHT22;50274;45.640;11.756;2023-12-22T00:47:31;2.50;76.90
63017;DHT22;50274;45.640;11.756;2023-12-22T00:50:00;2.50;76.90
63017;DHT22;50274;45.640;11.756;2023-12-22T00:52:26;2.50;77.00
63017;DHT22;50274;45.640;11.756;2023-12-22T00:54:52;2.50;77.20
63017;DHT22;50274;45.640;11.756;2023-12-22T00:57:17;2.60;77.00
63017;DHT22;50274;45.640;11.756;2023-12-22T00:59:43;2.60;77.00
63017;DHT22;50274;45.640;11.756;2023-12-22T01:02:14;2.60;77.00
63017;DHT22;50274;45.640;11.756;2023-12-22T01:04:40;2.60;77.00
63017;DHT22;50274;45.640;11.756;2023-12-22T01:07:08;2.60;77.00
63017;DHT22;50274;45.640;11.756;2023-12-22T01:09:34;2.60;77.00
63017;DHT22;50274;45.640;11.756;2023-12-22T01:12:00;2.60;77.20
63017;DHT22;50274;45.640;11.756;2023-12-22T01:14:29;2.60;77.20
63017;DHT22;50274;45.640;11.756;2023-12-22T01:16:55;2.60;77.20
63017;DHT22;50274;45.640;11.756;2023-12-22T01:19:21;2.70;77.20
63017;DHT22;50274;45.640;11.756;2023-12-22T01:21:47;2.70;77.20
63017;DHT22;50274;45.640;11.756;2023-12-22T01:24:12;2.70;77.20
63017;DHT22;50274;45.640;11.756;2023-12-22T01:26:38;2.70;77.10
63017;DHT22;50274;45.640;11.756;2023-12-22T01:29:04;2.70;77.20
63017;DHT22;50274;45.640;11.756;2023-12-22T01:31:30;2.70;77.20
63017;DHT22;50274;45.640;11.756;2023-12-22T01:33:56;2.70;77.20
63017;DHT22;50274;45.640;11.756;2023-12-22T01:36:22;2.70;77.20
63017;DHT22;50274;45.640;11.756;2023-12-22T01:38:47;2.70;77.40
63017;DHT22;50274;45.640;11.756;2023-12-22T01:41:13;2.70;77.40
63017;DHT22;50274;45.640;11.756;2023-12-22T01:43:39;2.70;77.40
63017;DHT22;50274;45.640;11.756;2023-12-22T01:46:06;2.70;77.40
63017;DHT22;50274;45.640;11.756;2023-12-22T01:48:33;2.70;77.50
63017;DHT22;50274;45.640;11.756;2023-12-22T01:51:01;2.70;77.40
63017;DHT22;50274;45.640;11.756;2023-12-22T01:53:28;2.70;77.50
63017;DHT22;50274;45.640;11.756;2023-12-22T01:55:55;2.70;77.50
63017;DHT22;50274;45.640;11.756;2023-12-22T01:58:23;2.70;77.50
63017;DHT22;50274;45.640;11.756;2023-12-22T02:00:49;2.70;77.50
63017;DHT22;50274;45.640;11.756;2023-12-22T02:03:16;2.70;77.60
63017;DHT22;50274;45.640;11.756;2023-12-22T02:05:46;2.70;77.70
63017;DHT22;50274;45.640;11.756;2023-12-22T02:08:12;2.70;77.70
63017;DHT22;50274;45.640;11.756;2023-12-22T02:10:38;2.60;77.80
63017;DHT22;50274;45.640;11.756;2023-12-22T02:13:05;2.60;77.80
63017;DHT22;50274;45.640;11.756;2023-12-22T02:15:32;2.60;77.80
63017;DHT22;50274;45.640;11.756;2023-12-22T02:18:12;2.60;77.80
63017;DHT22;50274;45.640;11.756;2023-12-22T02:20:39;2.60;77.90
63017;DHT22;50274;45.640;11.756;2023-12-22T02:23:05;2.60;78.00
63017;DHT22;50274;45.640;11.756;2023-12-22T02:25:31;2.60;78.10
63017;DHT22;50274;45.640;11.756;2023-12-22T02:28:03;2.60;78.50
63017;DHT22;50274;45.640;11.756;2023-12-22T02:30:43;2.60;78.20
63017;DHT22;50274;45.640;11.756;2023-12-22T02:33:15;2.60;78.10
63017;DHT22;50274;45.640;11.756;2023-12-22T02:35:42;2.60;78.30
63017;DHT22;50274;45.640;11.756;2023-12-22T02:38:12;2.50;78.20
63017;DHT22;50274;45.640;11.756;2023-12-22T02:40:38;2.60;78.30
63017;DHT22;50274;45.640;11.756;2023-12-22T02:43:06;2.60;78.40
63017;DHT22;50274;45.640;11.756;2023-12-22T02:45:32;2.60;78.40
63017;DHT22;50274;45.640;11.756;2023-12-22T02:47:58;2.60;78.40
63017;DHT22;50274;45.640;11.756;2023-12-22T02:50:24;2.60;78.50
63017;DHT22;50274;45.640;11.756;2023-12-22T02:52:50;2.60;78.50
63017;DHT22;50274;45.640;11.756;2023-12-22T02:55:17;2.70;78.50
63017;DHT22;50274;45.640;11.756;2023-12-22T02:57:43;2.70;78.60
63017;DHT22;50274;45.640;11.756;2023-12-22T03:00:09;2.70;78.50
63017;DHT22;50274;45.640;11.756;2023-12-22T03:02:35;2.70;78.50
63017;DHT22;50274;45.640;11.756;2023-12-22T03:05:01;2.70;78.50
63017;DHT22;50274;45.640;11.756;2023-12-22T03:07:26;2.70;78.50
63017;DHT22;50274;45.640;11.756;2023-12-22T03:09:52;2.70;78.50
63017;DHT22;50274;45.640;11.756;2023-12-22T03:12:18;2.70;78.60
63017;DHT22;50274;45.640;11.756;2023-12-22T03:14:44;2.60;79.00
63017;DHT22;50274;45.640;11.756;2023-12-22T03:17:10;2.60;78.70
63017;DHT22;50274;45.640;11.756;2023-12-22T03:19:36;2.60;78.80
63017;DHT22;50274;45.640;11.756;2023-12-22T03:22:02;2.60;78.80
63017;DHT22;50274;45.640;11.756;2023-12-22T03:24:28;2.70;78.80
63017;DHT22;50274;45.640;11.756;2023-12-22T03:26:54;2.70;78.80
63017;DHT22;50274;45.640;11.756;2023-12-22T03:29:20;2.70;78.80
63017;DHT22;50274;45.640;11.756;2023-12-22T03:31:46;2.70;78.80
63017;DHT22;50274;45.640;11.756;2023-12-22T03:34:13;2.70;79.00
63017;DHT22;50274;45.640;11.756;2023-12-22T03:36:39;2.70;78.70
63017;DHT22;50274;45.640;11.756;2023-12-22T03:39:05;2.70;78.80
63017;DHT22;50274;45.640;11.756;2023-12-22T03:41:31;2.70;78.70
63017;DHT22;50274;45.640;11.756;2023-12-22T03:43:57;2.70;78.80
63017;DHT22;50274;45.640;11.756;2023-12-22T03:46:23;2.70;78.70
63017;DHT22;50274;45.640;11.756;2023-12-22T03:48:53;2.70;78.70
63017;DHT22;50274;45.640;11.756;2023-12-22T03:51:19;2.80;78.70
63017;DHT22;50274;45.640;11.756;2023-12-22T03:53:45;2.70;78.70
63017;DHT22;50274;45.640;11.756;2023-12-22T03:56:22;2.70;78.70
63017;DHT22;50274;45.640;11.756;2023-12-22T03:58:55;2.70;78.80
63017;DHT22;50274;45.640;11.756;2023-12-22T04:01:21;2.70;78.90
63017;DHT22;50274;45.640;11.756;2023-12-22T04:03:47;2.70;78.90
63017;DHT22;50274;45.640;11.756;2023-12-22T04:06:12;2.70;78.80
63017;DHT22;50274;45.640;11.756;2023-12-22T04:08:38;2.70;79.00
63017;DHT22;50274;45.640;11.756;2023-12-22T04:11:04;2.60;79.00
63017;DHT22;50274;45.640;11.756;2023-12-22T04:13:30;2.60;79.10
63017;DHT22;50274;45.640;11.756;2023-12-22T04:15:56;2.60;79.10
63017;DHT22;50274;45.640;11.756;2023-12-22T04:18:22;2.60;79.10
63017;DHT22;50274;45.640;11.756;2023-12-22T04:20:48;2.60;79.10
63017;DHT22;50274;45.640;11.756;2023-12-22T04:23:17;2.60;79.10
63017;DHT22;50274;45.640;11.756;2023-12-22T04:25:43;2.60;79.30
63017;DHT22;50274;45.640;11.756;2023-12-22T04:28:08;2.60;79.20
63017;DHT22;50274;45.640;11.756;2023-12-22T04:30:34;2.60;79.20
63017;DHT22;50274;45.640;11.756;2023-12-22T04:33:01;2.60;79.30
63017;DHT22;50274;45.640;11.756;2023-12-22T04:35:26;2.50;79.20
63017;DHT22;50274;45.640;11.756;2023-12-22T04:37:52;2.50;79.40
63017;DHT22;50274;45.640;11.756;2023-12-22T04:40:18;2.50;79.40
63017;DHT22;50274;45.640;11.756;2023-12-22T04:42:45;2.50;79.50
63017;DHT22;50274;45.640;11.756;2023-12-22T04:45:10;2.50;79.40
63017;DHT22;50274;45.640;11.756;2023-12-22T04:47:37;2.40;79.40
63017;DHT22;50274;45.640;11.756;2023-12-22T04:50:02;2.40;79.50
63017;DHT22;50274;45.640;11.756;2023-12-22T04:52:28;2.40;79.50
63017;DHT22;50274;45.640;11.756;2023-12-22T04:54:54;2.40;79.60
63017;DHT22;50274;45.640;11.756;2023-12-22T04:57:20;2.40;79.70
63017;DHT22;50274;45.640;11.756;2023-12-22T04:59:47;2.30;79.70
63017;DHT22;50274;45.640;11.756;2023-12-22T05:02:13;2.30;79.70
63017;DHT22;50274;45.640;11.756;2023-12-22T05:04:39;2.40;79.90
63017;DHT22;50274;45.640;11.756;2023-12-22T05:07:05;2.40;79.80
63017;DHT22;50274;45.640;11.756;2023-12-22T05:09:35;2.40;79.70
63017;DHT22;50274;45.640;11.756;2023-12-22T05:12:01;2.40;79.70
63017;DHT22;50274;45.640;11.756;2023-12-22T05:14:26;2.40;79.70
63017;DHT22;50274;45.640;11.756;2023-12-22T05:16:52;2.40;79.80
63017;DHT22;50274;45.640;11.756;2023-12-22T05:19:21;2.40;79.70
63017;DHT22;50274;45.640;11.756;2023-12-22T05:21:47;2.40;79.70
63017;DHT22;50274;45.640;11.756;2023-12-22T05:24:15;2.50;79.70
63017;DHT22;50274;45.640;11.756;2023-12-22T05:26:40;2.50;79.70
63017;DHT22;50274;45.640;11.756;2023-12-22T05:29:07;2.50;79.70
63017;DHT22;50274;45.640;11.756;2023-12-22T05:31:33;2.50;79.70
63017;DHT22;50274;45.640;11.756;2023-12-22T05:34:00;2.50;79.60
63017;DHT22;50274;45.640;11.756;2023-12-22T05:36:26;2.50;79.70
63017;DHT22;50274;45.640;11.756;2023-12-22T05:38:51;2.50;79.70
63017;DHT22;50274;45.640;11.756;2023-12-22T05:41:17;2.60;79.70
63017;DHT22;50274;45.640;11.756;2023-12-22T05:43:43;2.60;79.60
63017;DHT22;50274;45.640;11.756;2023-12-22T05:46:09;2.60;79.50
63017;DHT22;50274;45.640;11.756;2023-12-22T05:48:35;2.60;79.30
63017;DHT22;50274;45.640;11.756;2023-12-22T05:51:01;2.50;79.40
63017;DHT22;50274;45.640;11.756;2023-12-22T05:53:33;2.50;79.30
63017;DHT22;50274;45.640;11.756;2023-12-22T05:55:59;2.50;79.30
63017;DHT22;50274;45.640;11.756;2023-12-22T05:58:25;2.50;79.30
63017;DHT22;50274;45.640;11.756;2023-12-22T06:00:50;2.50;79.40
63017;DHT22;50274;45.640;11.756;2023-12-22T06:03:17;2.50;79.40
63017;DHT22;50274;45.640;11.756;2023-12-22T06:05:43;2.50;79.40
63017;DHT22;50274;45.640;11.756;2023-12-22T06:08:08;2.50;79.40
63017;DHT22;50274;45.640;11.756;2023-12-22T06:10:35;2.50;79.30
63017;DHT22;50274;45.640;11.756;2023-12-22T06:13:01;2.50;79.30
63017;DHT22;50274;45.640;11.756;2023-12-22T06:15:29;2.50;79.30
63017;DHT22;50274;45.640;11.756;2023-12-22T06:17:55;2.50;79.30
63017;DHT22;50274;45.640;11.756;2023-12-22T06:20:21;2.50;79.40
63017;DHT22;50274;45.640;11.756;2023-12-22T06:22:47;2.50;79.30
63017;DHT22;50274;45.640;11.756;2023-12-22T06:25:13;2.40;79.30
63017;DHT22;50274;45.640;11.756;2023-12-22T06:27:38;2.40;79.40
63017;DHT22;50274;45.640;11.756;2023-12-22T06:30:05;2.40;79.40
63017;DHT22;50274;45.640;11.756;2023-12-22T06:32:32;2.30;79.60
63017;DHT22;50274;45.640;11.756;2023-12-22T06:34:58;2.30;79.70
63017;DHT22;50274;45.640;11.756;2023-12-22T06:37:26;2.30;79.70
63017;DHT22;50274;45.640;11.756;2023-12-22T06:39:51;2.30;79.70
63017;DHT22;50274;45.640;11.756;2023-12-22T06:42:17;2.30;79.70
63017;DHT22;50274;45.640;11.756;2023-12-22T06:44:43;2.20;79.80
63017;DHT22;50274;45.640;11.756;2023-12-22T06:47:09;2.30;79.80
63017;DHT22;50274;45.640;11.756;2023-12-22T06:49:35;2.30;79.80
63017;DHT22;50274;45.640;11.756;2023-12-22T06:52:00;2.30;79.80
63017;DHT22;50274;45.640;11.756;2023-12-22T06:54:27;2.30;79.80
63017;DHT22;50274;45.640;11.756;2023-12-22T06:56:52;2.30;79.60
63017;DHT22;50274;45.640;11.756;2023-12-22T06:59:18;2.20;79.60
63017;DHT22;50274;45.640;11.756;2023-12-22T07:01:44;2.20;79.50
63017;DHT22;50274;45.640;11.756;2023-12-22T07:04:10;2.20;79.60
63017;DHT22;50274;45.640;11.756;2023-12-22T07:06:35;2.20;79.50
63017;DHT22;50274;45.640;11.756;2023-12-22T07:11:48;2.10;79.80
63017;DHT22;50274;45.640;11.756;2023-12-22T07:14:15;2.10;79.60
63017;DHT22;50274;45.640;11.756;2023-12-22T07:16:41;2.00;79.80
63017;DHT22;50274;45.640;11.756;2023-12-22T07:19:10;2.00;79.80
63017;DHT22;50274;45.640;11.756;2023-12-22T07:21:38;2.00;80.10
63017;DHT22;50274;45.640;11.756;2023-12-22T07:24:05;2.00;80.10
63017;DHT22;50274;45.640;11.756;2023-12-22T07:26:31;2.00;80.20
63017;DHT22;50274;45.640;11.756;2023-12-22T07:28:57;2.00;80.20
63017;DHT22;50274;45.640;11.756;2023-12-22T07:31:24;2.10;80.20
63017;DHT22;50274;45.640;11.756;2023-12-22T07:33:50;2.00;80.30
63017;DHT22;50274;45.640;11.756;2023-12-22T07:36:16;2.10;80.30
63017;DHT22;50274;45.640;11.756;2023-12-22T07:38:41;2.10;80.40
63017;DHT22;50274;45.640;11.756;2023-12-22T07:41:07;2.00;80.20
63017;DHT22;50274;45.640;11.756;2023-12-22T07:43:33;2.00;80.30
63017;DHT22;50274;45.640;11.756;2023-12-22T07:45:59;2.10;80.40
63017;DHT22;50274;45.640;11.756;2023-12-22T07:48:25;2.10;80.50
63017;DHT22;50274;45.640;11.756;2023-12-22T07:50:51;2.20;80.40
63017;DHT22;50274;45.640;11.756;2023-12-22T07:53:16;2.20;80.50
63017;DHT22;50274;45.640;11.756;2023-12-22T07:55:46;2.30;80.40
63017;DHT22;50274;45.640;11.756;2023-12-22T07:58:12;2.40;80.30
63017;DHT22;50274;45.640;11.756;2023-12-22T08:00:39;2.50;80.30
63017;DHT22;50274;45.640;11.756;2023-12-22T08:03:05;2.50;80.30
63017;DHT22;50274;45.640;11.756;2023-12-22T08:05:38;2.60;80.30
63017;DHT22;50274;45.640;11.756;2023-12-22T08:08:06;2.60;80.50
63017;DHT22;50274;45.640;11.756;2023-12-22T08:10:33;2.70;80.20
63017;DHT22;50274;45.640;11.756;2023-12-22T08:12:59;2.70;80.20
63017;DHT22;50274;45.640;11.756;2023-12-22T08:15:25;2.80;80.20
63017;DHT22;50274;45.640;11.756;2023-12-22T08:17:51;2.90;80.40
63017;DHT22;50274;45.640;11.756;2023-12-22T08:20:18;2.90;80.30
63017;DHT22;50274;45.640;11.756;2023-12-22T08:22:46;3.00;80.30
63017;DHT22;50274;45.640;11.756;2023-12-22T08:25:12;3.10;80.30
63017;DHT22;50274;45.640;11.756;2023-12-22T08:27:38;3.20;80.30
63017;DHT22;50274;45.640;11.756;2023-12-22T08:30:05;3.30;80.30
63017;DHT22;50274;45.640;11.756;2023-12-22T08:32:34;3.40;80.30
63017;DHT22;50274;45.640;11.756;2023-12-22T08:35:00;3.50;80.20
63017;DHT22;50274;45.640;11.756;2023-12-22T08:37:26;3.60;80.10
63017;DHT22;50274;45.640;11.756;2023-12-22T08:39:52;3.70;80.00
63017;DHT22;50274;45.640;11.756;2023-12-22T08:42:18;3.90;79.80
63017;DHT22;50274;45.640;11.756;2023-12-22T08:44:44;4.00;79.70
63017;DHT22;50274;45.640;11.756;2023-12-22T08:47:10;4.20;79.50
63017;DHT22;50274;45.640;11.756;2023-12-22T08:49:36;4.30;79.30
63017;DHT22;50274;45.640;11.756;2023-12-22T08:52:02;4.40;79.20
63017;DHT22;50274;45.640;11.756;2023-12-22T08:54:29;4.50;78.80
63017;DHT22;50274;45.640;11.756;2023-12-22T08:57:03;4.60;78.60
63017;DHT22;50274;45.640;11.756;2023-12-22T08:59:33;4.80;78.60
63017;DHT22;50274;45.640;11.756;2023-12-22T09:01:59;4.90;78.60
63017;DHT22;50274;45.640;11.756;2023-12-22T09:04:24;5.10;78.40
63017;DHT22;50274;45.640;11.756;2023-12-22T09:06:50;5.20;78.10
63017;DHT22;50274;45.640;11.756;2023-12-22T09:09:16;5.30;77.80
63017;DHT22;50274;45.640;11.756;2023-12-22T09:11:43;5.50;77.60
63017;DHT22;50274;45.640;11.756;2023-12-22T09:14:10;5.60;77.40
63017;DHT22;50274;45.640;11.756;2023-12-22T09:16:37;5.70;77.00
63017;DHT22;50274;45.640;11.756;2023-12-22T09:19:03;5.90;77.10
63017;DHT22;50274;45.640;11.756;2023-12-22T09:21:29;6.00;77.10
63017;DHT22;50274;45.640;11.756;2023-12-22T09:23:54;6.20;76.70
63017;DHT22;50274;45.640;11.756;2023-12-22T09:26:20;6.30;76.30
63017;DHT22;50274;45.640;11.756;2023-12-22T09:28:46;6.40;76.10
63017;DHT22;50274;45.640;11.756;2023-12-22T09:31:12;6.70;76.20
63017;DHT22;50274;45.640;11.756;2023-12-22T09:33:39;6.80;76.00
63017;DHT22;50274;45.640;11.756;2023-12-22T09:36:05;7.00;75.70
63017;DHT22;50274;45.640;11.756;2023-12-22T09:38:31;7.10;75.50
63017;DHT22;50274;45.640;11.756;2023-12-22T09:40:58;7.30;75.20
63017;DHT22;50274;45.640;11.756;2023-12-22T09:43:24;7.50;75.00
63017;DHT22;50274;45.640;11.756;2023-12-22T09:45:50;7.60;74.50
63017;DHT22;50274;45.640;11.756;2023-12-22T09:48:21;7.80;74.10
63017;DHT22;50274;45.640;11.756;2023-12-22T09:50:53;8.00;73.80
63017;DHT22;50274;45.640;11.756;2023-12-22T09:53:20;8.20;73.50
63017;DHT22;50274;45.640;11.756;2023-12-22T09:55:48;8.40;73.10
63017;DHT22;50274;45.640;11.756;2023-12-22T09:58:15;8.60;72.50
63017;DHT22;50274;45.640;11.756;2023-12-22T10:00:44;8.70;71.90
63017;DHT22;50274;45.640;11.756;2023-12-22T10:03:11;8.90;71.20
63017;DHT22;50274;45.640;11.756;2023-12-22T10:05:40;9.00;70.60
63017;DHT22;50274;45.640;11.756;2023-12-22T10:08:08;9.20;70.40
63017;DHT22;50274;45.640;11.756;2023-12-22T10:10:37;9.30;69.70
63017;DHT22;50274;45.640;11.756;2023-12-22T10:13:04;9.60;68.90
63017;DHT22;50274;45.640;11.756;2023-12-22T10:15:43;9.80;68.50
63017;DHT22;50274;45.640;11.756;2023-12-22T10:18:11;10.00;67.90
63017;DHT22;50274;45.640;11.756;2023-12-22T10:20:37;10.20;67.40
63017;DHT22;50274;45.640;11.756;2023-12-22T10:23:03;10.40;66.60
63017;DHT22;50274;45.640;11.756;2023-12-22T10:25:29;10.60;66.60
63017;DHT22;50274;45.640;11.756;2023-12-22T10:27:55;10.80;66.50
63017;DHT22;50274;45.640;11.756;2023-12-22T10:30:22;11.10;66.30
63017;DHT22;50274;45.640;11.756;2023-12-22T10:32:51;11.30;65.80
63017;DHT22;50274;45.640;11.756;2023-12-22T10:35:23;11.50;64.90
63017;DHT22;50274;45.640;11.756;2023-12-22T10:37:49;11.70;64.30
63017;DHT22;50274;45.640;11.756;2023-12-22T10:40:19;11.80;63.90
63017;DHT22;50274;45.640;11.756;2023-12-22T10:42:45;12.00;63.80
63017;DHT22;50274;45.640;11.756;2023-12-22T10:45:12;12.30;63.30
63017;DHT22;50274;45.640;11.756;2023-12-22T10:47:39;12.50;62.90
63017;DHT22;50274;45.640;11.756;2023-12-22T10:50:08;12.60;62.10
63017;DHT22;50274;45.640;11.756;2023-12-22T10:52:34;12.80;61.30
63017;DHT22;50274;45.640;11.756;2023-12-22T10:55:00;12.90;60.80
63017;DHT22;50274;45.640;11.756;2023-12-22T10:57:28;13.10;60.70
63017;DHT22;50274;45.640;11.756;2023-12-22T10:59:56;13.30;59.70
63017;DHT22;50274;45.640;11.756;2023-12-22T11:02:26;13.50;59.40
63017;DHT22;50274;45.640;11.756;2023-12-22T11:07:26;13.70;57.40
63017;DHT22;50274;45.640;11.756;2023-12-22T11:09:56;13.80;56.60
63017;DHT22;50274;45.640;11.756;2023-12-22T11:12:24;13.80;55.90
63017;DHT22;50274;45.640;11.756;2023-12-22T11:14:53;13.70;53.80
63017;DHT22;50274;45.640;11.756;2023-12-22T11:17:21;13.80;55.40
63017;DHT22;50274;45.640;11.756;2023-12-22T11:19:53;13.90;55.30
63017;DHT22;50274;45.640;11.756;2023-12-22T11:22:21;14.00;55.70
63017;DHT22;50274;45.640;11.756;2023-12-22T11:24:48;14.10;55.60
63017;DHT22;50274;45.640;11.756;2023-12-22T11:27:19;14.20;54.90
63017;DHT22;50274;45.640;11.756;2023-12-22T11:29:49;14.40;55.20
63017;DHT22;50274;45.640;11.756;2023-12-22T11:32:16;14.50;54.60
63017;DHT22;50274;45.640;11.756;2023-12-22T11:34:46;14.60;54.40
63017;DHT22;50274;45.640;11.756;2023-12-22T11:37:13;14.70;54.70
63017;DHT22;50274;45.640;11.756;2023-12-22T11:39:40;14.80;54.70
63017;DHT22;50274;45.640;11.756;2023-12-22T11:42:13;15.00;54.60
63017;DHT22;50274;45.640;11.756;2023-12-22T11:44:40;15.10;53.00
63017;DHT22;50274;45.640;11.756;2023-12-22T11:47:07;15.20;53.40
63017;DHT22;50274;45.640;11.756;2023-12-22T11:49:37;15.30;53.50
63017;DHT22;50274;45.640;11.756;2023-12-22T11:52:17;15.40;53.60
63017;DHT22;50274;45.640;11.756;2023-12-22T11:54:46;15.50;53.50
63017;DHT22;50274;45.640;11.756;2023-12-22T12:00:00;15.70;53.30
63017;DHT22;50274;45.640;11.756;2023-12-22T12:02:27;15.80;53.50
63017;DHT22;50274;45.640;11.756;2023-12-22T12:04:57;15.90;53.50
63017;DHT22;50274;45.640;11.756;2023-12-22T12:07:44;16.10;53.10
63017;DHT22;50274;45.640;11.756;2023-12-22T12:13:15;16.20;51.90
63017;DHT22;50274;45.640;11.756;2023-12-22T12:15:42;16.20;51.60
63017;DHT22;50274;45.640;11.756;2023-12-22T12:18:08;16.30;51.70
63017;DHT22;50274;45.640;11.756;2023-12-22T12:20:35;16.30;51.60
63017;DHT22;50274;45.640;11.756;2023-12-22T12:23:03;16.30;51.40
63017;DHT22;50274;45.640;11.756;2023-12-22T12:25:32;16.40;51.10
63017;DHT22;50274;45.640;11.756;2023-12-22T12:30:28;16.50;50.50
63017;DHT22;50274;45.640;11.756;2023-12-22T12:32:54;16.50;50.70
63017;DHT22;50274;45.640;11.756;2023-12-22T12:35:22;16.50;50.30
63017;DHT22;50274;45.640;11.756;2023-12-22T12:37:51;16.50;49.10
63017;DHT22;50274;45.640;11.756;2023-12-22T12:40:19;16.40;48.40
63017;DHT22;50274;45.640;11.756;2023-12-22T12:42:46;16.40;48.60
63017;DHT22;50274;45.640;11.756;2023-12-22T12:45:12;16.40;49.20
63017;DHT22;50274;45.640;11.756;2023-12-22T12:47:38;16.30;49.30
63017;DHT22;50274;45.640;11.756;2023-12-22T12:50:04;16.30;48.60
63017;DHT22;50274;45.640;11.756;2023-12-22T12:52:30;16.30;49.40
63017;DHT22;50274;45.640;11.756;2023-12-22T12:54:56;16.30;49.30
63017;DHT22;50274;45.640;11.756;2023-12-22T12:57:24;16.30;49.70
63017;DHT22;50274;45.640;11.756;2023-12-22T12:59:51;16.20;48.90
63017;DHT22;50274;45.640;11.756;2023-12-22T13:02:20;16.10;48.80
63017;DHT22;50274;45.640;11.756;2023-12-22T13:04:47;16.10;49.40
63017;DHT22;50274;45.640;11.756;2023-12-22T13:07:13;16.10;49.90
63017;DHT22;50274;45.640;11.756;2023-12-22T13:09:39;16.10;49.90
63017;DHT22;50274;45.640;11.756;2023-12-22T13:12:05;16.10;50.10
63017;DHT22;50274;45.640;11.756;2023-12-22T13:14:31;16.00;49.40
63017;DHT22;50274;45.640;11.756;2023-12-22T13:16:58;15.90;49.20
63017;DHT22;50274;45.640;11.756;2023-12-22T13:19:24;15.80;49.60
63017;DHT22;50274;45.640;11.756;2023-12-22T13:21:51;15.80;50.20
63017;DHT22;50274;45.640;11.756;2023-12-22T13:24:17;15.70;49.90
63017;DHT22;50274;45.640;11.756;2023-12-22T13:26:44;15.70;50.30
63017;DHT22;50274;45.640;11.756;2023-12-22T13:29:11;15.70;50.80
63017;DHT22;50274;45.640;11.756;2023-12-22T13:31:39;15.70;50.30
63017;DHT22;50274;45.640;11.756;2023-12-22T13:34:23;15.60;50.50
63017;DHT22;50274;45.640;11.756;2023-12-22T13:36:49;15.40;50.80
63017;DHT22;50274;45.640;11.756;2023-12-22T13:39:15;15.30;50.70
63017;DHT22;50274;45.640;11.756;2023-12-22T13:41:42;15.20;51.10
63017;DHT22;50274;45.640;11.756;2023-12-22T13:44:14;15.10;51.60
63017;DHT22;50274;45.640;11.756;2023-12-22T13:46:40;15.00;51.70
63017;DHT22;50274;45.640;11.756;2023-12-22T13:49:08;14.80;51.80
63017;DHT22;50274;45.640;11.756;2023-12-22T13:51:45;14.60;52.40
63017;DHT22;50274;45.640;11.756;2023-12-22T13:54:13;14.30;53.10
63017;DHT22;50274;45.640;11.756;2023-12-22T13:56:39;14.10;53.50
63017;DHT22;50274;45.640;11.756;2023-12-22T13:59:09;13.90;53.90
63017;DHT22;50274;45.640;11.756;2023-12-22T14:01:36;13.60;54.90
63017;DHT22;50274;45.640;11.756;2023-12-22T14:04:02;13.30;55.50
63017;DHT22;50274;45.640;11.756;2023-12-22T14:06:29;13.20;56.20
63017;DHT22;50274;45.640;11.756;2023-12-22T14:08:55;13.10;56.50
63017;DHT22;50274;45.640;11.756;2023-12-22T14:11:22;13.00;56.90
63017;DHT22;50274;45.640;11.756;2023-12-22T14:13:48;12.90;57.20
63017;DHT22;50274;45.640;11.756;2023-12-22T14:16:15;12.80;57.60
63017;DHT22;50274;45.640;11.756;2023-12-22T14:18:42;12.70;57.80
63017;DHT22;50274;45.640;11.756;2023-12-22T14:21:08;12.60;58.20
63017;DHT22;50274;45.640;11.756;2023-12-22T14:23:33;12.50;58.40
63017;DHT22;50274;45.640;11.756;2023-12-22T14:25:59;12.50;58.70
63017;DHT22;50274;45.640;11.756;2023-12-22T14:28:25;12.40;58.90
63017;DHT22;50274;45.640;11.756;2023-12-22T14:30:51;12.30;59.10
63017;DHT22;50274;45.640;11.756;2023-12-22T14:33:17;12.20;59.40
63017;DHT22;50274;45.640;11.756;2023-12-22T14:35:42;12.20;59.60
63017;DHT22;50274;45.640;11.756;2023-12-22T14:38:08;12.00;59.90
63017;DHT22;50274;45.640;11.756;2023-12-22T14:40:34;11.90;60.30
63017;DHT22;50274;45.640;11.756;2023-12-22T14:43:00;11.80;60.60
63017;DHT22;50274;45.640;11.756;2023-12-22T14:45:28;11.70;60.90
63017;DHT22;50274;45.640;11.756;2023-12-22T14:47:54;11.60;61.30
63017;DHT22;50274;45.640;11.756;2023-12-22T14:50:20;11.50;61.50
63017;DHT22;50274;45.640;11.756;2023-12-22T14:52:45;11.40;61.60
63017;DHT22;50274;45.640;11.756;2023-12-22T14:55:11;11.30;61.80
63017;DHT22;50274;45.640;11.756;2023-12-22T14:57:37;11.30;62.00
63017;DHT22;50274;45.640;11.756;2023-12-22T15:00:06;11.20;62.30
63017;DHT22;50274;45.640;11.756;2023-12-22T15:02:32;11.10;62.60
63017;DHT22;50274;45.640;11.756;2023-12-22T15:04:58;11.00;62.80
63017;DHT22;50274;45.640;11.756;2023-12-22T15:07:24;10.90;63.00
63017;DHT22;50274;45.640;11.756;2023-12-22T15:09:50;10.80;63.20
63017;DHT22;50274;45.640;11.756;2023-12-22T15:12:16;10.80;63.20
63017;DHT22;50274;45.640;11.756;2023-12-22T15:14:45;10.80;63.40
63017;DHT22;50274;45.640;11.756;2023-12-22T15:17:11;10.70;63.40
63017;DHT22;50274;45.640;11.756;2023-12-22T15:19:41;10.70;63.40
63017;DHT22;50274;45.640;11.756;2023-12-22T15:22:10;10.60;63.60
63017;DHT22;50274;45.640;11.756;2023-12-22T15:24:45;10.50;63.80
63017;DHT22;50274;45.640;11.756;2023-12-22T15:27:12;10.40;64.00
63017;DHT22;50274;45.640;11.756;2023-12-22T15:29:38;10.30;64.20
63017;DHT22;50274;45.640;11.756;2023-12-22T15:32:04;10.20;64.40
63017;DHT22;50274;45.640;11.756;2023-12-22T15:34:30;10.20;64.50
63017;DHT22;50274;45.640;11.756;2023-12-22T15:36:56;10.10;64.70